Time;durP1;ratioP1;P1;durP2;ratioP2;P2;SDS_P1;SDS_P2;PMS_P1;PMS_P2;Temp;Humidity;BMP_temperature;BMP_pressure;BME280_temperature;BME280_humidity;BME280_pressure;Samples;Min_cycle;Max_cycle;Signal;HPM_P1;HPM_P2
2021/11/24 00:01:29;;;;;;;90.67;24.60;;;6.70;99.90;;;;;;5033300;28;20060;-87
2021/11/24 00:03:54;;;;;;;84.67;24.47;;;6.70;99.90;;;;;;5033255;28;20044;-86
2021/11/24 00:06:20;;;;;;;84.87;25.23;;;6.70;99.90;;;;;;5049864;28;20082;-86
2021/11/24 00:08:48;;;;;;;75.47;22.43;;;6.80;99.90;;;;;;5049626;28;20075;-86
2021/11/24 00:11:14;;;;;;;92.47;25.20;;;6.80;99.90;;;;;;5049533;28;20128;-86
2021/11/24 00:13:40;;;;;;;89.00;24.00;;;6.80;99.90;;;;;;5032975;28;20045;-87
2021/11/24 00:16:07;;;;;;;101.40;25.77;;;6.80;99.90;;;;;;5032611;28;20079;-86
2021/11/24 00:18:33;;;;;;;89.90;24.50;;;6.80;99.90;;;;;;5050916;28;20033;-86
2021/11/24 00:20:59;;;;;;;98.77;26.03;;;6.80;99.90;;;;;;5049571;28;20052;-87
2021/11/24 00:23:25;;;;;;;94.63;23.77;;;6.80;99.90;;;;;;5049543;28;20029;-86
2021/11/24 00:25:51;;;;;;;95.53;24.40;;;6.80;99.90;;;;;;5049498;28;20535;-86
2021/11/24 00:28:17;;;;;;;102.63;25.80;;;6.80;99.90;;;;;;5032909;28;20033;-86
2021/11/24 00:30:44;;;;;;;102.20;25.30;;;6.80;99.90;;;;;;5032523;28;20467;-87
2021/11/24 00:33:10;;;;;;;91.40;23.97;;;6.80;99.90;;;;;;5032876;28;20029;-86
2021/11/24 00:35:36;;;;;;;89.97;25.43;;;6.80;99.90;;;;;;5032660;28;20539;-87
2021/11/24 00:38:02;;;;;;;92.10;24.60;;;6.80;99.90;;;;;;5032698;28;20054;-87
2021/11/24 00:40:27;;;;;;;95.13;24.63;;;6.90;99.90;;;;;;5049410;28;20025;-87
2021/11/24 00:42:53;;;;;;;94.23;25.97;;;6.80;99.90;;;;;;5032817;28;20462;-87
2021/11/24 00:45:20;;;;;;;93.57;26.20;;;6.80;99.90;;;;;;5032658;28;20056;-86
2021/11/24 00:47:46;;;;;;;94.67;25.53;;;6.80;99.90;;;;;;5032764;28;20025;-87
2021/11/24 00:50:12;;;;;;;88.20;24.03;;;6.90;99.90;;;;;;5032481;28;20040;-87
2021/11/24 00:52:37;;;;;;;107.13;25.23;;;6.80;99.90;;;;;;5050603;28;20041;-86
2021/11/24 00:55:04;;;;;;;106.33;27.30;;;6.80;99.90;;;;;;5032645;28;20044;-86
2021/11/24 00:57:30;;;;;;;115.70;28.97;;;6.80;99.90;;;;;;5053149;28;20025;-86
2021/11/24 00:59:55;;;;;;;126.33;28.17;;;6.80;99.90;;;;;;5053010;28;20393;-87
2021/11/24 01:02:21;;;;;;;110.17;28.43;;;6.80;99.90;;;;;;5036434;28;20048;-87
2021/11/24 01:04:47;;;;;;;124.50;30.63;;;6.80;99.90;;;;;;5036655;28;20397;-86
2021/11/24 01:07:13;;;;;;;122.47;28.40;;;6.80;99.90;;;;;;5052868;28;20041;-86
2021/11/24 01:09:40;;;;;;;120.90;28.97;;;6.80;99.90;;;;;;5052933;28;20036;-86
2021/11/24 01:12:06;;;;;;;126.13;31.70;;;6.80;99.90;;;;;;5053945;28;20029;-87
2021/11/24 01:14:31;;;;;;;130.47;31.50;;;6.70;99.90;;;;;;5052666;28;20040;-87
2021/11/24 01:16:57;;;;;;;112.83;29.57;;;6.70;99.90;;;;;;5052706;28;20021;-87
2021/11/24 01:19:23;;;;;;;121.73;33.27;;;6.70;99.90;;;;;;5052755;28;20350;-86
2021/11/24 01:21:49;;;;;;;123.73;30.13;;;6.70;99.90;;;;;;5052815;28;20117;-87
2021/11/24 01:24:15;;;;;;;127.77;31.47;;;6.70;99.90;;;;;;5036136;28;20386;-87
2021/11/24 01:26:40;;;;;;;103.87;28.67;;;6.70;99.90;;;;;;5036240;28;20469;-86
2021/11/24 01:29:06;;;;;;;113.17;28.27;;;6.70;99.90;;;;;;5035858;28;20029;-86
2021/11/24 01:31:32;;;;;;;113.77;30.07;;;6.70;99.90;;;;;;5036010;28;20071;-87
2021/11/24 01:33:58;;;;;;;129.47;31.20;;;6.80;99.90;;;;;;5052489;28;20021;-86
2021/11/24 01:36:26;;;;;;;126.37;33.27;;;6.70;99.90;;;;;;5052575;28;20087;-86
2021/11/24 01:38:52;;;;;;;127.53;32.33;;;6.70;99.90;;;;;;5053737;28;20017;-86
2021/11/24 01:41:18;;;;;;;114.37;30.50;;;6.70;99.90;;;;;;5035792;28;20052;-87
2021/11/24 01:43:44;;;;;;;122.67;31.23;;;6.80;99.90;;;;;;5035788;28;20115;-87
2021/11/24 01:46:09;;;;;;;113.57;29.87;;;6.80;99.90;;;;;;5035818;28;20048;-86
2021/11/24 01:48:35;;;;;;;111.07;29.20;;;6.80;99.90;;;;;;5035854;28;20116;-87
2021/11/24 01:51:01;;;;;;;118.37;28.00;;;6.70;99.90;;;;;;5035704;28;20516;-86
2021/11/24 01:53:28;;;;;;;115.17;30.13;;;6.80;99.90;;;;;;5052284;28;20441;-86
2021/11/24 01:55:56;;;;;;;127.70;30.33;;;6.80;99.90;;;;;;5051913;28;20035;-87
2021/11/24 01:58:24;;;;;;;115.63;30.13;;;6.80;99.90;;;;;;5035589;28;20119;-86
2021/11/24 02:00:50;;;;;;;120.90;29.90;;;6.80;99.90;;;;;;5035176;28;20025;-87
2021/11/24 02:03:16;;;;;;;129.50;30.93;;;6.80;99.90;;;;;;5052060;28;20381;-87
2021/11/24 02:05:42;;;;;;;119.57;31.27;;;6.80;99.90;;;;;;5053259;28;20032;-86
2021/11/24 02:08:07;;;;;;;121.57;31.80;;;6.80;99.90;;;;;;5052822;28;20489;-86
2021/11/24 02:10:33;;;;;;;128.37;31.20;;;6.80;99.90;;;;;;5035038;28;20120;-86
2021/11/24 02:12:59;;;;;;;136.77;32.93;;;6.90;99.90;;;;;;5051627;28;20037;-87
2021/11/24 02:15:25;;;;;;;139.27;32.83;;;6.80;99.90;;;;;;5034936;28;20052;-86
2021/11/24 02:17:51;;;;;;;130.27;32.03;;;6.80;99.90;;;;;;5035206;28;20548;-86
2021/11/24 02:20:38;;;;;;;134.50;32.47;;;6.80;99.90;;;;;;5051738;28;20116;-86
2021/11/24 02:23:06;;;;;;;148.43;33.93;;;6.80;99.90;;;;;;5047978;28;20037;-86
2021/11/24 02:25:33;;;;;;;131.03;32.30;;;6.80;99.90;;;;;;5049497;28;20048;-87
2021/11/24 02:27:59;;;;;;;136.70;33.20;;;6.80;99.90;;;;;;5034558;28;20029;-87
2021/11/24 02:30:25;;;;;;;139.30;32.93;;;6.80;99.90;;;;;;5049953;28;20142;-87
2021/11/24 02:32:51;;;;;;;150.30;35.07;;;6.80;99.90;;;;;;5052235;28;20029;-87
2021/11/24 02:35:16;;;;;;;128.90;32.00;;;6.80;99.90;;;;;;5051053;28;20032;-87
2021/11/24 02:37:42;;;;;;;142.87;32.87;;;6.80;99.90;;;;;;5052616;28;20068;-87
2021/11/24 02:40:08;;;;;;;150.97;33.43;;;6.80;99.90;;;;;;5051943;28;20051;-87
2021/11/24 02:42:38;;;;;;;135.40;32.33;;;6.80;99.90;;;;;;5051309;28;20028;-87
2021/11/24 02:45:04;;;;;;;145.70;34.07;;;6.70;99.90;;;;;;5034332;28;20044;-87
2021/11/24 02:47:30;;;;;;;145.40;34.10;;;6.70;99.90;;;;;;5052293;28;20441;-86
2021/11/24 02:49:59;;;;;;;158.00;33.87;;;6.70;99.90;;;;;;5051906;28;20027;-87
2021/11/24 02:52:25;;;;;;;148.60;34.63;;;6.70;99.90;;;;;;5034382;28;20450;-87
2021/11/24 02:54:54;;;;;;;163.77;35.60;;;6.70;99.90;;;;;;5051070;28;20029;-87
2021/11/24 02:57:30;;;;;;;141.40;34.20;;;6.70;99.90;;;;;;5050633;28;20025;-87
2021/11/24 02:59:56;;;;;;;148.03;33.63;;;6.70;99.90;;;;;;5051603;28;20048;-87
2021/11/24 03:02:22;;;;;;;160.93;35.67;;;6.80;99.90;;;;;;5033874;28;20374;-87
2021/11/24 03:04:48;;;;;;;150.07;34.17;;;6.70;99.90;;;;;;5051045;28;20082;-87
2021/11/24 03:07:13;;;;;;;163.30;35.37;;;6.80;99.90;;;;;;5050439;28;20102;-86
2021/11/24 03:09:40;;;;;;;151.07;33.10;;;6.70;99.90;;;;;;5033756;28;20032;-87
2021/11/24 03:12:05;;;;;;;154.83;34.43;;;6.80;99.90;;;;;;5033857;28;20374;-87
2021/11/24 03:14:31;;;;;;;162.93;35.67;;;6.80;99.90;;;;;;5033838;28;20040;-87
2021/11/24 03:16:57;;;;;;;164.97;35.90;;;6.70;99.90;;;;;;5033106;28;20105;-87
2021/11/24 03:19:23;;;;;;;170.27;35.97;;;6.70;99.90;;;;;;5050258;28;20500;-87
2021/11/24 03:21:49;;;;;;;146.40;33.83;;;6.70;99.90;;;;;;5052006;28;20033;-87
2021/11/24 03:24:15;;;;;;;166.27;37.87;;;6.80;99.90;;;;;;5050694;28;20032;-87
2021/11/24 03:26:43;;;;;;;164.70;35.53;;;6.70;99.90;;;;;;5051737;28;20044;-87
2021/11/24 03:29:09;;;;;;;172.17;35.57;;;6.70;99.90;;;;;;5051367;28;20048;-87
2021/11/24 03:31:34;;;;;;;163.07;34.50;;;6.70;99.90;;;;;;5050182;28;20036;-87
2021/11/24 03:34:00;;;;;;;147.17;35.00;;;6.70;99.90;;;;;;5032934;28;20040;-87
2021/11/24 03:36:26;;;;;;;158.87;35.03;;;6.70;99.90;;;;;;5049830;28;20108;-87
2021/11/24 03:38:51;;;;;;;164.00;35.53;;;6.70;99.90;;;;;;5033511;28;20083;-87
2021/11/24 03:41:17;;;;;;;171.57;35.20;;;6.70;99.90;;;;;;5050806;28;20066;-87
2021/11/24 03:43:43;;;;;;;152.77;32.97;;;6.70;99.90;;;;;;5034062;28;20089;-87
2021/11/24 03:46:09;;;;;;;149.23;32.67;;;6.70;99.90;;;;;;5050511;28;20123;-87
2021/11/24 03:48:35;;;;;;;176.93;37.00;;;6.70;99.90;;;;;;5050436;28;20129;-87
2021/11/24 03:51:01;;;;;;;167.17;34.60;;;6.70;99.90;;;;;;5049782;28;20125;-87
2021/11/24 03:53:27;;;;;;;157.40;35.93;;;6.70;99.90;;;;;;5050307;28;20116;-87
2021/11/24 03:55:53;;;;;;;186.53;38.20;;;6.70;99.90;;;;;;5052322;28;20473;-87
2021/11/24 03:58:18;;;;;;;183.67;36.57;;;6.70;99.90;;;;;;5034961;28;20063;-87
2021/11/24 04:00:44;;;;;;;182.47;38.27;;;6.70;99.90;;;;;;5033681;28;20068;-87
2021/11/24 04:03:10;;;;;;;176.20;36.50;;;6.70;99.90;;;;;;5033733;28;20163;-87
2021/11/24 04:05:36;;;;;;;183.50;35.17;;;6.60;99.90;;;;;;5051152;28;20434;-87
2021/11/24 04:08:02;;;;;;;174.40;36.23;;;6.70;99.90;;;;;;5033222;28;20187;-87
2021/11/24 04:10:27;;;;;;;186.27;37.33;;;6.70;99.90;;;;;;5050270;28;20128;-87
2021/11/24 04:12:53;;;;;;;176.30;36.63;;;6.70;99.90;;;;;;5032979;28;20033;-87
2021/11/24 04:15:20;;;;;;;190.90;37.83;;;6.70;99.90;;;;;;5049370;28;20114;-87
2021/11/24 04:17:47;;;;;;;187.90;39.93;;;6.70;99.90;;;;;;5050539;28;20029;-87
2021/11/24 04:20:15;;;;;;;175.93;37.23;;;6.70;99.90;;;;;;5049214;28;20043;-87
2021/11/24 04:22:42;;;;;;;189.77;38.40;;;6.70;99.90;;;;;;5032941;28;20031;-87
2021/11/24 04:25:09;;;;;;;152.83;34.20;;;6.70;99.90;;;;;;5049231;28;20401;-88
2021/11/24 04:27:35;;;;;;;166.00;36.90;;;6.70;99.90;;;;;;5050357;28;20033;-87
2021/11/24 04:30:01;;;;;;;172.30;37.17;;;6.70;99.90;;;;;;5047870;28;20351;-88
2021/11/24 04:32:26;;;;;;;173.00;35.80;;;6.70;99.90;;;;;;5032456;28;20033;-87
2021/11/24 04:34:52;;;;;;;183.67;37.60;;;6.70;99.90;;;;;;5032385;28;20033;-87
2021/11/24 04:37:18;;;;;;;184.27;36.77;;;6.70;99.90;;;;;;5032063;28;20364;-87
2021/11/24 04:39:45;;;;;;;183.63;40.07;;;6.80;99.90;;;;;;5048696;28;20047;-87
2021/11/24 04:42:10;;;;;;;179.10;37.63;;;6.70;99.90;;;;;;5032567;28;20025;-87
2021/11/24 04:44:36;;;;;;;186.60;41.20;;;6.80;99.90;;;;;;5049228;28;20035;-87
2021/11/24 04:47:03;;;;;;;189.00;40.23;;;6.80;99.90;;;;;;5048886;28;20126;-87
2021/11/24 04:49:29;;;;;;;191.93;38.60;;;6.80;99.90;;;;;;5048761;28;20390;-87
2021/11/24 04:51:55;;;;;;;181.93;37.97;;;6.70;99.90;;;;;;5051136;28;20120;-83
2021/11/24 04:54:21;;;;;;;172.17;38.40;;;6.70;99.90;;;;;;5050009;28;20114;-88
2021/11/24 04:56:46;;;;;;;167.13;38.57;;;6.80;99.90;;;;;;5033037;28;20061;-87
2021/11/24 04:59:13;;;;;;;183.40;38.53;;;6.70;99.90;;;;;;5049568;28;20024;-88
2021/11/24 05:01:40;;;;;;;181.00;37.67;;;6.80;99.90;;;;;;5050801;28;20108;-89
2021/11/24 05:04:05;;;;;;;176.57;38.40;;;6.80;99.90;;;;;;5022825;28;20081;-88
2021/11/24 05:06:31;;;;;;;159.57;35.27;;;6.70;99.90;;;;;;5021728;28;20051;-88
2021/11/24 05:08:57;;;;;;;171.07;39.03;;;6.70;99.90;;;;;;5032628;28;20490;-87
2021/11/24 05:11:23;;;;;;;194.27;40.23;;;6.70;99.90;;;;;;5049285;28;20123;-87
2021/11/24 05:13:56;;;;;;;173.20;36.77;;;6.70;99.90;;;;;;5032614;28;20064;-87
2021/11/24 05:16:23;;;;;;;171.73;37.80;;;6.70;99.90;;;;;;5049075;28;20033;-86
2021/11/24 05:18:49;;;;;;;180.23;37.77;;;6.70;99.90;;;;;;5032505;28;20021;-87
2021/11/24 05:23:52;;;;;;;193.67;38.80;;;6.60;99.90;;;;;;5048993;28;20060;-87
2021/11/24 05:26:18;;;;;;;176.27;38.33;;;6.70;99.90;;;;;;5049366;28;20053;-87
2021/11/24 05:28:46;;;;;;;191.53;39.87;;;6.70;99.90;;;;;;5049066;28;20032;-87
2021/11/24 05:31:12;;;;;;;179.43;39.27;;;6.70;99.90;;;;;;5049357;28;20036;-87
2021/11/24 05:33:38;;;;;;;181.83;38.40;;;6.70;99.90;;;;;;5049196;28;20117;-86
2021/11/24 05:36:05;;;;;;;185.37;38.43;;;6.70;99.90;;;;;;5032198;28;20033;-87
2021/11/24 05:38:31;;;;;;;173.37;35.37;;;6.70;99.90;;;;;;5049037;28;20036;-86
2021/11/24 05:40:57;;;;;;;172.07;39.27;;;6.80;99.90;;;;;;5048329;28;20036;-86
2021/11/24 05:43:27;;;;;;;174.03;37.57;;;6.70;99.90;;;;;;5035710;28;20033;-87
2021/11/24 05:48:20;;;;;;;169.50;38.37;;;6.80;99.90;;;;;;5053297;28;20454;-84
2021/11/24 05:50:48;;;;;;;189.23;38.50;;;6.70;99.90;;;;;;5056331;28;20142;-85
2021/11/24 05:53:16;;;;;;;158.03;35.47;;;6.70;99.90;;;;;;5054155;28;20029;-85
2021/11/24 05:55:43;;;;;;;177.50;36.70;;;6.80;99.90;;;;;;5053022;28;20485;-85
2021/11/24 05:58:10;;;;;;;166.60;36.37;;;6.80;99.90;;;;;;5054002;28;20060;-86
2021/11/24 06:00:35;;;;;;;169.70;35.13;;;6.80;99.90;;;;;;5053261;28;20021;-85
2021/11/24 06:03:02;;;;;;;157.07;35.57;;;6.80;99.90;;;;;;5035202;28;20368;-86
2021/11/24 06:05:28;;;;;;;153.53;35.33;;;6.80;99.90;;;;;;5035278;28;20434;-86
2021/11/24 06:07:53;;;;;;;162.37;34.60;;;6.80;99.90;;;;;;5053243;28;20029;-86
2021/11/24 06:10:19;;;;;;;145.33;34.00;;;6.80;99.90;;;;;;5051766;28;20525;-86
2021/11/24 06:12:45;;;;;;;163.10;36.93;;;6.80;99.90;;;;;;5051805;28;20033;-85
2021/11/24 06:15:15;;;;;;;161.87;35.90;;;6.80;99.90;;;;;;5054186;28;20401;-84
2021/11/24 06:17:42;;;;;;;161.07;35.53;;;6.80;99.90;;;;;;5054032;28;20032;-85
2021/11/24 06:20:09;;;;;;;148.30;35.77;;;6.80;99.90;;;;;;5052961;28;20460;-86
2021/11/24 06:22:34;;;;;;;151.20;35.80;;;6.80;99.90;;;;;;5050701;28;20044;-86
2021/11/24 06:25:00;;;;;;;149.00;36.37;;;6.80;99.90;;;;;;5052787;28;20029;-86
2021/11/24 06:27:26;;;;;;;160.53;35.40;;;6.80;99.90;;;;;;5051206;28;20037;-86
2021/11/24 06:29:52;;;;;;;148.67;34.80;;;6.80;99.90;;;;;;5052689;28;20137;-85
2021/11/24 06:32:17;;;;;;;152.30;34.17;;;6.80;99.90;;;;;;5050123;28;20481;-85
2021/11/24 06:34:43;;;;;;;143.00;34.07;;;6.80;99.90;;;;;;5051688;28;20044;-87
2021/11/24 06:37:09;;;;;;;158.10;34.30;;;6.80;99.90;;;;;;5051032;28;20044;-87
2021/11/24 06:39:34;;;;;;;146.40;35.27;;;6.80;99.90;;;;;;5051185;28;20052;-87
2021/11/24 06:42:00;;;;;;;138.30;34.63;;;6.90;99.90;;;;;;5052687;28;20021;-87
2021/11/24 06:44:26;;;;;;;147.10;35.37;;;6.90;99.90;;;;;;5051849;28;20032;-86
2021/11/24 06:46:53;;;;;;;155.20;34.97;;;6.80;99.90;;;;;;5050769;28;20248;-87
2021/11/24 06:49:18;;;;;;;142.90;33.23;;;6.80;99.90;;;;;;5050855;28;20107;-87
2021/11/24 06:51:44;;;;;;;146.97;34.03;;;6.80;99.90;;;;;;5050719;28;20171;-86
2021/11/24 06:54:10;;;;;;;156.93;34.90;;;6.90;99.90;;;;;;5051145;28;20029;-86
2021/11/24 06:56:37;;;;;;;140.17;32.63;;;6.80;99.90;;;;;;5051110;28;20033;-86
2021/11/24 06:59:03;;;;;;;161.03;34.97;;;6.90;99.90;;;;;;5033959;28;20077;-86
2021/11/24 07:01:29;;;;;;;153.27;34.07;;;6.80;99.90;;;;;;5033642;28;20489;-87
2021/11/24 07:03:55;;;;;;;143.73;33.30;;;6.80;99.90;;;;;;5034633;28;20021;-86
2021/11/24 07:06:21;;;;;;;144.80;35.17;;;6.80;99.90;;;;;;5050279;28;20131;-87
2021/11/24 07:08:47;;;;;;;151.47;33.80;;;6.90;99.90;;;;;;5051913;28;20112;-86
2021/11/24 07:11:12;;;;;;;154.93;33.90;;;6.80;99.90;;;;;;5049703;28;20148;-86
2021/11/24 07:13:38;;;;;;;154.07;34.77;;;6.80;99.90;;;;;;5050580;28;20029;-86
2021/11/24 07:16:04;;;;;;;152.17;34.23;;;6.80;99.90;;;;;;5032825;28;20056;-86
2021/11/24 07:18:31;;;;;;;165.33;35.40;;;6.80;99.90;;;;;;5050608;28;20433;-86
2021/11/24 07:20:56;;;;;;;169.43;34.63;;;6.80;99.90;;;;;;5049308;28;20036;-87
2021/11/24 07:23:22;;;;;;;169.60;37.33;;;6.90;99.90;;;;;;5050123;28;20033;-86
2021/11/24 07:25:48;;;;;;;179.37;40.77;;;6.90;99.90;;;;;;5033505;28;20446;-86
2021/11/24 07:28:14;;;;;;;164.93;35.33;;;6.90;99.90;;;;;;5050256;28;20029;-86
2021/11/24 07:30:40;;;;;;;141.03;33.57;;;6.90;99.90;;;;;;5050167;28;20037;-86
2021/11/24 07:33:06;;;;;;;159.10;33.90;;;6.90;99.90;;;;;;5050126;28;20037;-87
2021/11/24 07:35:32;;;;;;;148.37;32.77;;;6.90;99.90;;;;;;5032808;28;20161;-87
2021/11/24 07:37:59;;;;;;;155.67;34.67;;;6.90;99.90;;;;;;5050664;28;20029;-85
2021/11/24 07:40:25;;;;;;;161.23;34.47;;;6.90;99.90;;;;;;5056385;28;20401;-84
2021/11/24 07:42:51;;;;;;;151.87;34.37;;;7.00;99.90;;;;;;5046176;28;20024;-83
2021/11/24 07:45:18;;;;;;;147.23;31.97;;;7.00;99.90;;;;;;5065615;28;20043;-84
2021/11/24 07:47:44;;;;;;;155.33;33.20;;;7.00;99.90;;;;;;5036480;28;20043;-84
2021/11/24 07:50:10;;;;;;;152.80;33.17;;;7.00;99.90;;;;;;5053689;28;20033;-84
2021/11/24 07:52:36;;;;;;;154.33;32.70;;;7.10;99.90;;;;;;5056951;28;20048;-85
2021/11/24 07:55:03;;;;;;;137.37;31.67;;;7.00;99.90;;;;;;5071940;28;20044;-85
2021/11/24 07:57:29;;;;;;;151.60;34.13;;;7.10;99.90;;;;;;5071256;28;20033;-85
2021/11/24 07:59:55;;;;;;;162.87;33.00;;;7.10;99.90;;;;;;5069047;28;20032;-84
2021/11/24 08:02:21;;;;;;;154.10;32.57;;;7.10;99.90;;;;;;5064749;28;20087;-84
2021/11/24 08:04:47;;;;;;;167.53;35.40;;;7.00;99.90;;;;;;5054184;28;20718;-85
2021/11/24 08:07:13;;;;;;;158.93;33.40;;;7.10;99.90;;;;;;5054037;28;20032;-83
2021/11/24 08:09:38;;;;;;;154.87;34.17;;;7.00;99.90;;;;;;5053740;28;20039;-81
2021/11/24 08:12:05;;;;;;;177.37;35.60;;;7.00;99.90;;;;;;5050699;28;20565;-81
2021/11/24 08:14:30;;;;;;;154.10;33.23;;;7.00;99.90;;;;;;5053434;28;20088;-84
2021/11/24 08:16:56;;;;;;;161.37;35.80;;;7.10;99.90;;;;;;5039723;28;20079;-86
2021/11/24 08:19:22;;;;;;;181.77;34.67;;;7.00;99.90;;;;;;5037001;28;20029;-85
2021/11/24 08:21:48;;;;;;;172.83;34.57;;;7.00;99.90;;;;;;5040848;28;20115;-85
2021/11/24 08:24:14;;;;;;;188.63;37.97;;;7.10;99.90;;;;;;5034612;28;20444;-84
2021/11/24 08:26:40;;;;;;;171.37;34.03;;;7.00;99.90;;;;;;5053279;28;20025;-84
2021/11/24 08:29:10;;;;;;;173.07;34.90;;;7.00;99.90;;;;;;5052166;28;20036;-84
2021/11/24 08:31:39;;;;;;;173.63;35.70;;;7.10;99.90;;;;;;5053538;28;20036;-83
2021/11/24 08:34:07;;;;;;;165.45;34.20;;;7.00;99.90;;;;;;5054647;28;20029;-85
2021/11/24 08:36:32;;;;;;;172.27;36.83;;;7.00;99.90;;;;;;5052576;28;20044;-84
2021/11/24 08:38:58;;;;;;;165.17;32.97;;;7.10;99.90;;;;;;5051994;28;20029;-83
2021/11/24 08:41:24;;;;;;;166.70;34.73;;;7.10;99.90;;;;;;5053669;28;20029;-85
2021/11/24 08:43:50;;;;;;;151.07;34.87;;;7.20;99.90;;;;;;5055729;28;20025;-85
2021/11/24 08:46:16;;;;;;;160.50;34.73;;;7.20;99.90;;;;;;5040415;28;20500;-82
2021/11/24 08:48:41;;;;;;;144.60;33.47;;;7.20;99.90;;;;;;5055950;28;20025;-82
2021/11/24 08:51:07;;;;;;;145.03;33.57;;;7.20;99.90;;;;;;5052164;28;20123;-86
2021/11/24 08:53:33;;;;;;;139.53;33.40;;;7.20;99.90;;;;;;5052266;28;20040;-87
2021/11/24 08:56:00;;;;;;;139.63;32.30;;;7.20;99.90;;;;;;5050884;28;20033;-86
2021/11/24 08:58:26;;;;;;;143.57;32.93;;;7.20;99.90;;;;;;5034065;28;20075;-85
2021/11/24 09:00:52;;;;;;;131.07;31.83;;;7.30;99.90;;;;;;5051329;28;20025;-87
2021/11/24 09:03:18;;;;;;;129.43;30.13;;;7.30;99.90;;;;;;5050920;28;20036;-87
2021/11/24 09:05:44;;;;;;;132.97;31.20;;;7.30;99.90;;;;;;5034154;28;20116;-87
2021/11/24 09:08:09;;;;;;;140.73;32.03;;;7.30;99.90;;;;;;5033966;28;20508;-86
2021/11/24 09:10:36;;;;;;;136.33;33.53;;;7.20;99.90;;;;;;5033472;28;20107;-86
2021/11/24 09:13:02;;;;;;;133.03;30.73;;;7.30;99.90;;;;;;5050762;28;20474;-87
2021/11/24 09:15:28;;;;;;;140.57;31.23;;;7.30;99.90;;;;;;5050437;28;20097;-86
2021/11/24 09:17:54;;;;;;;110.70;28.57;;;7.30;99.90;;;;;;5035664;28;20529;-86
2021/11/24 09:20:20;;;;;;;94.77;27.20;;;7.40;99.90;;;;;;5055219;28;20029;-86
2021/11/24 09:22:48;;;;;;;88.57;26.33;;;7.40;99.90;;;;;;5037852;28;20033;-87
2021/11/24 09:25:18;;;;;;;87.13;25.77;;;7.40;99.90;;;;;;5055846;28;20128;-86
2021/11/24 09:28:10;;;;;;;91.57;26.80;;;7.50;99.90;;;;;;5054313;28;20029;-86
2021/11/24 09:30:35;;;;;;;79.43;24.73;;;7.50;99.90;;;;;;5053695;28;20048;-86
2021/11/24 09:33:01;;;;;;;87.47;26.00;;;7.50;99.90;;;;;;5055652;28;20029;-86
2021/11/24 09:35:27;;;;;;;83.27;25.30;;;7.50;99.90;;;;;;5037497;28;20040;-86
2021/11/24 09:37:53;;;;;;;79.93;25.27;;;7.50;99.90;;;;;;5055562;28;20035;-86
2021/11/24 09:40:18;;;;;;;70.73;23.80;;;7.50;99.90;;;;;;5053547;28;20496;-86
2021/11/24 09:42:47;;;;;;;66.40;21.97;;;7.50;99.90;;;;;;5037623;28;20537;-86
2021/11/24 09:45:16;;;;;;;66.95;22.08;;;7.50;99.90;;;;;;5054285;28;20029;-87
2021/11/24 09:47:47;;;;;;;63.67;22.15;;;7.60;99.90;;;;;;5054072;28;20079;-86
2021/11/24 09:50:14;;;;;;;62.43;21.40;;;7.60;99.90;;;;;;5053479;28;20120;-86
2021/11/24 09:52:44;;;;;;;62.57;22.23;;;7.50;99.90;;;;;;5037532;28;20087;-86
2021/11/24 09:55:10;;;;;;;63.77;21.13;;;7.70;99.90;;;;;;5055250;28;20541;-87
2021/11/24 09:57:36;;;;;;;62.63;22.13;;;7.70;99.90;;;;;;5053964;28;20048;-86
2021/11/24 10:00:05;;;;;;;58.90;21.27;;;7.60;99.90;;;;;;5055025;28;20031;-87
2021/11/24 10:02:38;;;;;;;53.23;20.37;;;7.70;99.90;;;;;;5054528;28;20059;-86
2021/11/24 10:05:05;;;;;;;51.70;19.37;;;7.70;99.90;;;;;;5038039;28;20036;-86
2021/11/24 10:07:32;;;;;;;52.20;19.27;;;7.70;99.90;;;;;;5037024;28;20029;-86
2021/11/24 10:09:58;;;;;;;47.47;18.73;;;7.70;99.90;;;;;;5054417;28;20033;-87
2021/11/24 10:12:23;;;;;;;52.60;20.43;;;7.70;99.90;;;;;;5053435;28;20032;-86
2021/11/24 10:14:49;;;;;;;46.97;18.93;;;7.70;99.90;;;;;;5036912;28;20128;-86
2021/11/24 10:17:24;;;;;;;50.30;18.83;;;7.80;99.90;;;;;;5037101;28;20052;-86
2021/11/24 10:20:11;;;;;;;47.80;19.17;;;7.70;99.90;;;;;;5036738;28;20037;-86
2021/11/24 10:22:41;;;;;;;41.77;17.00;;;7.80;99.90;;;;;;5053579;28;20363;-86
2021/11/24 10:25:12;;;;;;;52.90;18.30;;;7.80;99.90;;;;;;5053464;28;20448;-87
2021/11/24 10:27:38;;;;;;;47.27;18.93;;;7.80;99.90;;;;;;5053354;28;20066;-86
2021/11/24 10:30:06;;;;;;;52.07;19.77;;;7.80;99.90;;;;;;5052503;28;20033;-86
2021/11/24 10:32:32;;;;;;;49.55;19.13;;;7.80;99.90;;;;;;5054327;28;20386;-86
2021/11/24 10:34:59;;;;;;;50.53;20.00;;;7.80;99.90;;;;;;5036641;28;20037;-86
2021/11/24 10:37:25;;;;;;;48.67;18.17;;;7.90;99.90;;;;;;5053584;28;20029;-86
2021/11/24 10:40:01;;;;;;;50.77;19.70;;;7.90;99.90;;;;;;5036193;28;20055;-86
2021/11/24 10:42:32;;;;;;;46.03;18.03;;;7.90;99.90;;;;;;5054405;28;20048;-86
2021/11/24 10:45:19;;;;;;;46.43;18.90;;;7.80;99.90;;;;;;5052869;28;20473;-86
2021/11/24 10:47:57;;;;;;;50.57;19.03;;;7.90;99.90;;;;;;5036885;28;20060;-87
2021/11/24 10:50:25;;;;;;;50.00;19.47;;;7.90;99.90;;;;;;5052675;28;20409;-86
2021/11/24 10:52:51;;;;;;;48.43;18.70;;;8.00;99.90;;;;;;5052715;28;20032;-86
2021/11/24 10:55:24;;;;;;;47.73;18.50;;;7.90;99.90;;;;;;5052489;28;20827;-86
2021/11/24 10:58:04;;;;;;;47.40;18.73;;;8.00;99.90;;;;;;5053872;28;20029;-86
2021/11/24 11:00:50;;;;;;;47.97;19.77;;;8.00;99.90;;;;;;5053578;28;20025;-86
2021/11/24 11:03:16;;;;;;;51.30;19.43;;;8.10;99.90;;;;;;5052724;28;20029;-86
2021/11/24 11:05:44;;;;;;;50.00;20.13;;;8.10;99.90;;;;;;5052767;28;20032;-86
2021/11/24 11:08:14;;;;;;;49.23;19.40;;;8.20;99.90;;;;;;5052992;28;20064;-87
2021/11/24 11:10:52;;;;;;;43.93;18.33;;;8.10;99.90;;;;;;5053374;28;20497;-86
2021/11/24 11:13:21;;;;;;;49.50;18.57;;;8.10;99.90;;;;;;5052828;28;20440;-86
2021/11/24 11:15:50;;;;;;;52.20;19.77;;;8.10;99.90;;;;;;5053825;28;20037;-86
2021/11/24 11:18:31;;;;;;;49.07;19.47;;;8.10;99.90;;;;;;5053750;28;20033;-86
2021/11/24 11:21:02;;;;;;;49.57;19.47;;;8.10;99.90;;;;;;5052196;28;20079;-86
2021/11/24 11:23:30;;;;;;;51.93;20.70;;;8.10;99.90;;;;;;5052970;28;20437;-86
2021/11/24 11:25:59;;;;;;;46.47;19.33;;;8.10;99.90;;;;;;5054592;28;20397;-86
2021/11/24 11:28:32;;;;;;;51.60;19.33;;;8.20;99.90;;;;;;5035699;28;20128;-86
2021/11/24 11:31:02;;;;;;;46.20;19.83;;;8.20;99.90;;;;;;5052729;28;20388;-86
2021/11/24 11:33:32;;;;;;;57.17;20.60;;;8.10;99.90;;;;;;5052180;28;20406;-86
2021/11/24 11:36:06;;;;;;;49.47;18.90;;;8.20;99.90;;;;;;5051831;28;20029;-87
2021/11/24 11:38:34;;;;;;;49.33;20.03;;;8.20;99.90;;;;;;5051974;28;20338;-86
2021/11/24 11:41:01;;;;;;;57.10;20.80;;;8.30;99.90;;;;;;5050660;28;20458;-86
2021/11/24 11:43:27;;;;;;;53.80;19.57;;;8.20;99.90;;;;;;5051758;28;20035;-86
2021/11/24 11:45:54;;;;;;;50.83;19.07;;;8.30;99.90;;;;;;5052257;28;20481;-86
2021/11/24 11:48:31;;;;;;;55.13;20.83;;;8.30;99.90;;;;;;5052399;28;20561;-87
2021/11/24 11:51:05;;;;;;;54.53;21.20;;;8.30;99.90;;;;;;5051968;28;20102;-86
2021/11/24 11:53:38;;;;;;;54.20;20.00;;;8.30;99.90;;;;;;5053282;28;20438;-87
2021/11/24 11:56:12;;;;;;;49.70;20.23;;;8.30;99.90;;;;;;5035810;28;20048;-86
2021/11/24 11:59:21;;;;;;;47.37;19.47;;;8.30;99.90;;;;;;5052196;28;20033;-87
2021/11/24 12:01:47;;;;;;;55.35;20.75;;;8.40;99.90;;;;;;5053715;28;20044;-87
2021/11/24 12:04:15;;;;;;;49.90;20.33;;;8.30;99.90;;;;;;5052588;28;20033;-87
2021/11/24 12:06:51;;;;;;;52.33;19.67;;;8.40;99.90;;;;;;5052154;28;20025;-86
2021/11/24 12:09:17;;;;;;;51.73;20.40;;;8.40;99.90;;;;;;5051604;28;20040;-87
2021/11/24 12:12:10;;;;;;;52.20;19.63;;;8.30;99.90;;;;;;5051998;28;20037;-86
2021/11/24 12:14:43;;;;;;;50.67;19.17;;;8.40;99.90;;;;;;5052099;28;20390;-86
2021/11/24 12:17:31;;;;;;;51.40;19.40;;;8.40;99.90;;;;;;5053865;28;20017;-87
2021/11/24 12:20:12;;;;;;;56.43;21.30;;;8.30;99.90;;;;;;5035198;28;20071;-87
2021/11/24 12:23:05;;;;;;;53.83;19.87;;;8.30;99.90;;;;;;5053333;28;20021;-86
2021/11/24 12:25:30;;;;;;;53.73;20.77;;;8.40;99.90;;;;;;5053771;28;20037;-86
2021/11/24 12:28:02;;;;;;;53.30;21.97;;;8.40;99.90;;;;;;5052321;28;20068;-86
2021/11/24 12:30:37;;;;;;;53.50;21.57;;;8.40;99.90;;;;;;5051939;28;20033;-87
2021/11/24 12:33:07;;;;;;;53.30;20.87;;;8.40;99.90;;;;;;5052219;28;20036;-86
2021/11/24 12:35:39;;;;;;;44.63;19.33;;;8.40;99.90;;;;;;5052216;28;20040;-86
2021/11/24 12:38:07;;;;;;;53.07;20.40;;;8.50;99.90;;;;;;5035467;28;20060;-87